sensor_id;sensor_type;location;lat;lon;timestamp;P1;durP1;ratioP1;P2;durP2;ratioP2
71937;SDS011;59810;48.800;9.086;2023-01-24T00:01:00;20.77;;;8.93;;
71937;SDS011;59810;48.800;9.086;2023-01-24T00:03:26;21.20;;;8.73;;
71937;SDS011;59810;48.800;9.086;2023-01-24T00:05:51;20.15;;;9.25;;
71937;SDS011;59810;48.800;9.086;2023-01-24T00:08:17;22.00;;;8.83;;
71937;SDS011;59810;48.800;9.086;2023-01-24T00:10:48;22.10;;;8.97;;
71937;SDS011;59810;48.800;9.086;2023-01-24T00:13:14;20.75;;;8.32;;
71937;SDS011;59810;48.800;9.086;2023-01-24T00:15:43;19.88;;;9.07;;
71937;SDS011;59810;48.800;9.086;2023-01-24T00:18:10;20.60;;;9.10;;
71937;SDS011;59810;48.800;9.086;2023-01-24T00:20:36;22.30;;;9.57;;
71937;SDS011;59810;48.800;9.086;2023-01-24T00:23:01;22.40;;;9.70;;
71937;SDS011;59810;48.800;9.086;2023-01-24T00:25:27;20.17;;;8.30;;
71937;SDS011;59810;48.800;9.086;2023-01-24T00:27:52;24.47;;;9.63;;
71937;SDS011;59810;48.800;9.086;2023-01-24T00:30:20;21.50;;;8.85;;
71937;SDS011;59810;48.800;9.086;2023-01-24T00:32:45;24.17;;;9.07;;
71937;SDS011;59810;48.800;9.086;2023-01-24T00:35:11;22.97;;;9.20;;
71937;SDS011;59810;48.800;9.086;2023-01-24T00:37:36;22.20;;;8.87;;
71937;SDS011;59810;48.800;9.086;2023-01-24T00:40:04;21.40;;;8.75;;
71937;SDS011;59810;48.800;9.086;2023-01-24T00:42:30;19.42;;;8.35;;
71937;SDS011;59810;48.800;9.086;2023-01-24T00:44:55;19.33;;;8.13;;
71937;SDS011;59810;48.800;9.086;2023-01-24T00:47:20;24.13;;;9.80;;
71937;SDS011;59810;48.800;9.086;2023-01-24T00:49:46;20.47;;;8.20;;
71937;SDS011;59810;48.800;9.086;2023-01-24T00:52:11;19.70;;;8.30;;
71937;SDS011;59810;48.800;9.086;2023-01-24T00:54:36;21.60;;;8.77;;
71937;SDS011;59810;48.800;9.086;2023-01-24T00:57:02;20.83;;;8.88;;
71937;SDS011;59810;48.800;9.086;2023-01-24T00:59:32;21.38;;;9.63;;
71937;SDS011;59810;48.800;9.086;2023-01-24T01:01:57;22.20;;;8.83;;
71937;SDS011;59810;48.800;9.086;2023-01-24T01:04:23;19.17;;;8.67;;
71937;SDS011;59810;48.800;9.086;2023-01-24T01:06:48;24.27;;;9.50;;
71937;SDS011;59810;48.800;9.086;2023-01-24T01:09:13;23.43;;;8.60;;
71937;SDS011;59810;48.800;9.086;2023-01-24T01:11:43;23.90;;;10.00;;
71937;SDS011;59810;48.800;9.086;2023-01-24T01:14:09;22.70;;;9.97;;
71937;SDS011;59810;48.800;9.086;2023-01-24T01:16:34;20.85;;;8.75;;
71937;SDS011;59810;48.800;9.086;2023-01-24T01:19:03;20.23;;;8.95;;
71937;SDS011;59810;48.800;9.086;2023-01-24T01:21:31;24.40;;;9.43;;
71937;SDS011;59810;48.800;9.086;2023-01-24T01:23:57;20.45;;;8.70;;
71937;SDS011;59810;48.800;9.086;2023-01-24T01:26:24;21.77;;;9.47;;
71937;SDS011;59810;48.800;9.086;2023-01-24T01:28:50;22.08;;;8.88;;
71937;SDS011;59810;48.800;9.086;2023-01-24T01:31:15;23.87;;;9.90;;
71937;SDS011;59810;48.800;9.086;2023-01-24T01:33:42;23.63;;;9.10;;
71937;SDS011;59810;48.800;9.086;2023-01-24T01:36:08;23.70;;;10.02;;
71937;SDS011;59810;48.800;9.086;2023-01-24T01:38:33;21.63;;;9.30;;
71937;SDS011;59810;48.800;9.086;2023-01-24T01:40:59;24.77;;;8.83;;
71937;SDS011;59810;48.800;9.086;2023-01-24T01:43:25;21.97;;;9.00;;
71937;SDS011;59810;48.800;9.086;2023-01-24T01:45:54;26.42;;;10.80;;
71937;SDS011;59810;48.800;9.086;2023-01-24T01:48:38;25.80;;;9.85;;
71937;SDS011;59810;48.800;9.086;2023-01-24T01:54:00;23.87;;;9.93;;
71937;SDS011;59810;48.800;9.086;2023-01-24T01:56:32;21.02;;;9.45;;
71937;SDS011;59810;48.800;9.086;2023-01-24T01:59:04;20.92;;;9.18;;
71937;SDS011;59810;48.800;9.086;2023-01-24T02:01:34;22.88;;;9.05;;
71937;SDS011;59810;48.800;9.086;2023-01-24T02:04:04;24.80;;;10.15;;
71937;SDS011;59810;48.800;9.086;2023-01-24T02:06:37;26.40;;;11.03;;
71937;SDS011;59810;48.800;9.086;2023-01-24T02:09:27;22.70;;;9.27;;
71937;SDS011;59810;48.800;9.086;2023-01-24T02:11:57;22.92;;;10.57;;
71937;SDS011;59810;48.800;9.086;2023-01-24T02:14:27;27.10;;;10.38;;
71937;SDS011;59810;48.800;9.086;2023-01-24T02:17:15;24.90;;;9.32;;
71937;SDS011;59810;48.800;9.086;2023-01-24T02:27:55;24.52;;;9.93;;
71937;SDS011;59810;48.800;9.086;2023-01-24T02:30:21;24.70;;;10.57;;
71937;SDS011;59810;48.800;9.086;2023-01-24T02:32:48;22.20;;;9.13;;
71937;SDS011;59810;48.800;9.086;2023-01-24T02:35:27;22.17;;;9.20;;
71937;SDS011;59810;48.800;9.086;2023-01-24T02:37:56;22.65;;;9.38;;
71937;SDS011;59810;48.800;9.086;2023-01-24T02:40:24;24.65;;;9.70;;
71937;SDS011;59810;48.800;9.086;2023-01-24T02:42:51;25.37;;;9.83;;
71937;SDS011;59810;48.800;9.086;2023-01-24T02:45:24;27.02;;;11.13;;
71937;SDS011;59810;48.800;9.086;2023-01-24T02:47:53;23.75;;;10.10;;
71937;SDS011;59810;48.800;9.086;2023-01-24T02:50:21;27.33;;;10.70;;
71937;SDS011;59810;48.800;9.086;2023-01-24T02:52:48;26.30;;;10.75;;
71937;SDS011;59810;48.800;9.086;2023-01-24T02:55:49;25.13;;;10.47;;
71937;SDS011;59810;48.800;9.086;2023-01-24T02:58:33;26.10;;;9.63;;
71937;SDS011;59810;48.800;9.086;2023-01-24T03:00:58;25.50;;;10.53;;
71937;SDS011;59810;48.800;9.086;2023-01-24T03:03:23;27.83;;;11.13;;
71937;SDS011;59810;48.800;9.086;2023-01-24T03:05:49;28.47;;;10.57;;
71937;SDS011;59810;48.800;9.086;2023-01-24T03:08:24;25.13;;;10.60;;
71937;SDS011;59810;48.800;9.086;2023-01-24T03:10:53;23.77;;;10.05;;
71937;SDS011;59810;48.800;9.086;2023-01-24T03:13:22;26.33;;;10.05;;
71937;SDS011;59810;48.800;9.086;2023-01-24T03:16:07;27.48;;;11.05;;
71937;SDS011;59810;48.800;9.086;2023-01-24T03:18:51;26.20;;;10.00;;
71937;SDS011;59810;48.800;9.086;2023-01-24T03:21:36;24.45;;;9.98;;
71937;SDS011;59810;48.800;9.086;2023-01-24T03:24:23;24.27;;;9.95;;
71937;SDS011;59810;48.800;9.086;2023-01-24T03:27:07;27.90;;;10.02;;
71937;SDS011;59810;48.800;9.086;2023-01-24T03:29:51;25.33;;;10.35;;
71937;SDS011;59810;48.800;9.086;2023-01-24T03:32:35;25.93;;;10.17;;
71937;SDS011;59810;48.800;9.086;2023-01-24T03:35:20;25.55;;;10.07;;
71937;SDS011;59810;48.800;9.086;2023-01-24T03:37:45;27.90;;;10.70;;
71937;SDS011;59810;48.800;9.086;2023-01-24T03:40:29;25.13;;;9.38;;
71937;SDS011;59810;48.800;9.086;2023-01-24T03:42:55;26.23;;;9.23;;
71937;SDS011;59810;48.800;9.086;2023-01-24T03:45:21;24.40;;;9.90;;
71937;SDS011;59810;48.800;9.086;2023-01-24T03:48:09;24.38;;;9.60;;
71937;SDS011;59810;48.800;9.086;2023-01-24T03:50:40;26.02;;;10.07;;
71937;SDS011;59810;48.800;9.086;2023-01-24T03:53:26;26.57;;;10.40;;
71937;SDS011;59810;48.800;9.086;2023-01-24T03:55:54;25.70;;;10.23;;
71937;SDS011;59810;48.800;9.086;2023-01-24T03:58:23;24.67;;;10.13;;
71937;SDS011;59810;48.800;9.086;2023-01-24T04:00:50;25.75;;;9.48;;
71937;SDS011;59810;48.800;9.086;2023-01-24T04:03:17;24.80;;;9.82;;
71937;SDS011;59810;48.800;9.086;2023-01-24T04:05:42;24.53;;;10.10;;
71937;SDS011;59810;48.800;9.086;2023-01-24T04:08:10;26.83;;;10.57;;
71937;SDS011;59810;48.800;9.086;2023-01-24T04:10:35;25.15;;;9.88;;
71937;SDS011;59810;48.800;9.086;2023-01-24T04:13:00;24.40;;;8.90;;
71937;SDS011;59810;48.800;9.086;2023-01-24T04:15:30;21.60;;;8.97;;
71937;SDS011;59810;48.800;9.086;2023-01-24T04:17:57;24.73;;;10.38;;
71937;SDS011;59810;48.800;9.086;2023-01-24T04:20:25;23.97;;;9.97;;
71937;SDS011;59810;48.800;9.086;2023-01-24T04:22:54;26.90;;;10.52;;
71937;SDS011;59810;48.800;9.086;2023-01-24T04:25:20;24.92;;;9.50;;
71937;SDS011;59810;48.800;9.086;2023-01-24T04:27:46;23.30;;;9.75;;
71937;SDS011;59810;48.800;9.086;2023-01-24T04:30:14;21.67;;;8.80;;
71937;SDS011;59810;48.800;9.086;2023-01-24T04:32:41;26.10;;;9.87;;
71937;SDS011;59810;48.800;9.086;2023-01-24T04:35:06;23.95;;;9.23;;
71937;SDS011;59810;48.800;9.086;2023-01-24T04:37:32;25.23;;;10.27;;
71937;SDS011;59810;48.800;9.086;2023-01-24T04:39:58;22.53;;;9.37;;
71937;SDS011;59810;48.800;9.086;2023-01-24T04:42:28;28.17;;;10.55;;
71937;SDS011;59810;48.800;9.086;2023-01-24T04:44:55;24.92;;;10.13;;
71937;SDS011;59810;48.800;9.086;2023-01-24T04:47:21;27.87;;;10.13;;
71937;SDS011;59810;48.800;9.086;2023-01-24T04:49:46;23.40;;;9.07;;
71937;SDS011;59810;48.800;9.086;2023-01-24T04:52:12;25.00;;;9.75;;
71937;SDS011;59810;48.800;9.086;2023-01-24T04:54:38;23.73;;;9.10;;
71937;SDS011;59810;48.800;9.086;2023-01-24T04:57:04;25.98;;;9.50;;
71937;SDS011;59810;48.800;9.086;2023-01-24T04:59:30;27.58;;;9.95;;
71937;SDS011;59810;48.800;9.086;2023-01-24T05:01:56;27.53;;;10.27;;
71937;SDS011;59810;48.800;9.086;2023-01-24T05:04:23;26.77;;;10.13;;
71937;SDS011;59810;48.800;9.086;2023-01-24T05:06:49;23.90;;;9.83;;
71937;SDS011;59810;48.800;9.086;2023-01-24T05:09:14;25.23;;;10.27;;
71937;SDS011;59810;48.800;9.086;2023-01-24T05:11:39;25.90;;;10.43;;
71937;SDS011;59810;48.800;9.086;2023-01-24T05:14:05;25.30;;;9.60;;
71937;SDS011;59810;48.800;9.086;2023-01-24T05:16:33;26.63;;;10.20;;
71937;SDS011;59810;48.800;9.086;2023-01-24T05:18:59;24.93;;;10.03;;
71937;SDS011;59810;48.800;9.086;2023-01-24T05:21:24;26.57;;;9.63;;
71937;SDS011;59810;48.800;9.086;2023-01-24T05:23:50;24.85;;;9.80;;
71937;SDS011;59810;48.800;9.086;2023-01-24T05:26:22;28.10;;;10.85;;
71937;SDS011;59810;48.800;9.086;2023-01-24T05:28:49;26.47;;;9.80;;
71937;SDS011;59810;48.800;9.086;2023-01-24T05:31:15;28.50;;;11.32;;
71937;SDS011;59810;48.800;9.086;2023-01-24T05:33:41;26.60;;;10.82;;
71937;SDS011;59810;48.800;9.086;2023-01-24T05:36:11;27.07;;;10.27;;
71937;SDS011;59810;48.800;9.086;2023-01-24T05:38:41;27.55;;;9.48;;
71937;SDS011;59810;48.800;9.086;2023-01-24T05:41:10;28.15;;;10.68;;
71937;SDS011;59810;48.800;9.086;2023-01-24T05:43:37;29.02;;;10.52;;
71937;SDS011;59810;48.800;9.086;2023-01-24T05:46:07;26.13;;;11.00;;
71937;SDS011;59810;48.800;9.086;2023-01-24T05:48:37;28.25;;;10.35;;
71937;SDS011;59810;48.800;9.086;2023-01-24T05:51:04;27.57;;;10.40;;
71937;SDS011;59810;48.800;9.086;2023-01-24T05:53:34;25.38;;;10.38;;
71937;SDS011;59810;48.800;9.086;2023-01-24T05:56:03;27.27;;;10.82;;
71937;SDS011;59810;48.800;9.086;2023-01-24T05:58:32;26.65;;;10.93;;
71937;SDS011;59810;48.800;9.086;2023-01-24T06:00:59;28.27;;;10.90;;
71937;SDS011;59810;48.800;9.086;2023-01-24T06:03:26;25.30;;;9.60;;
71937;SDS011;59810;48.800;9.086;2023-01-24T06:05:54;30.23;;;11.75;;
71937;SDS011;59810;48.800;9.086;2023-01-24T06:08:20;27.95;;;10.73;;
71937;SDS011;59810;48.800;9.086;2023-01-24T06:10:46;29.55;;;11.48;;
71937;SDS011;59810;48.800;9.086;2023-01-24T06:13:12;26.73;;;10.47;;
71937;SDS011;59810;48.800;9.086;2023-01-24T06:15:38;31.65;;;11.57;;
71937;SDS011;59810;48.800;9.086;2023-01-24T06:18:07;28.15;;;10.75;;
71937;SDS011;59810;48.800;9.086;2023-01-24T06:20:37;27.05;;;11.60;;
71937;SDS011;59810;48.800;9.086;2023-01-24T06:23:04;29.73;;;10.57;;
71937;SDS011;59810;48.800;9.086;2023-01-24T06:25:33;29.48;;;10.68;;
71937;SDS011;59810;48.800;9.086;2023-01-24T06:27:59;26.40;;;10.30;;
71937;SDS011;59810;48.800;9.086;2023-01-24T06:30:25;25.45;;;10.55;;
71937;SDS011;59810;48.800;9.086;2023-01-24T06:35:44;28.02;;;10.27;;
71937;SDS011;59810;48.800;9.086;2023-01-24T06:38:32;31.50;;;12.15;;
71937;SDS011;59810;48.800;9.086;2023-01-24T06:40:59;28.17;;;10.73;;
71937;SDS011;59810;48.800;9.086;2023-01-24T06:43:26;25.60;;;10.52;;
71937;SDS011;59810;48.800;9.086;2023-01-24T06:45:52;29.47;;;11.17;;
71937;SDS011;59810;48.800;9.086;2023-01-24T06:48:17;24.57;;;10.03;;
71937;SDS011;59810;48.800;9.086;2023-01-24T06:50:45;26.75;;;10.02;;
71937;SDS011;59810;48.800;9.086;2023-01-24T06:53:12;25.23;;;10.10;;
71937;SDS011;59810;48.800;9.086;2023-01-24T06:55:39;26.50;;;10.25;;
71937;SDS011;59810;48.800;9.086;2023-01-24T06:58:09;31.20;;;11.40;;
71937;SDS011;59810;48.800;9.086;2023-01-24T07:00:34;25.37;;;10.33;;
71937;SDS011;59810;48.800;9.086;2023-01-24T07:03:00;28.00;;;10.67;;
71937;SDS011;59810;48.800;9.086;2023-01-24T07:05:27;24.98;;;9.57;;
71937;SDS011;59810;48.800;9.086;2023-01-24T07:07:53;26.13;;;10.40;;
71937;SDS011;59810;48.800;9.086;2023-01-24T07:10:19;25.92;;;10.05;;
71937;SDS011;59810;48.800;9.086;2023-01-24T07:12:45;27.83;;;10.00;;
71937;SDS011;59810;48.800;9.086;2023-01-24T07:15:11;28.50;;;10.70;;
71937;SDS011;59810;48.800;9.086;2023-01-24T07:17:39;29.13;;;11.07;;
71937;SDS011;59810;48.800;9.086;2023-01-24T07:20:05;26.05;;;10.68;;
71937;SDS011;59810;48.800;9.086;2023-01-24T07:22:31;27.17;;;11.18;;
71937;SDS011;59810;48.800;9.086;2023-01-24T07:24:57;29.07;;;10.97;;
71937;SDS011;59810;48.800;9.086;2023-01-24T07:27:22;29.27;;;11.23;;
71937;SDS011;59810;48.800;9.086;2023-01-24T07:29:48;28.57;;;11.47;;
71937;SDS011;59810;48.800;9.086;2023-01-24T07:32:13;28.87;;;10.60;;
71937;SDS011;59810;48.800;9.086;2023-01-24T07:34:38;28.20;;;12.20;;
71937;SDS011;59810;48.800;9.086;2023-01-24T07:37:07;28.23;;;11.48;;
71937;SDS011;59810;48.800;9.086;2023-01-24T07:39:32;27.85;;;11.55;;
71937;SDS011;59810;48.800;9.086;2023-01-24T07:42:01;28.17;;;10.57;;
71937;SDS011;59810;48.800;9.086;2023-01-24T07:44:26;34.17;;;11.43;;
71937;SDS011;59810;48.800;9.086;2023-01-24T07:46:51;24.43;;;10.00;;
71937;SDS011;59810;48.800;9.086;2023-01-24T07:49:19;25.40;;;10.00;;
71937;SDS011;59810;48.800;9.086;2023-01-24T07:51:44;27.30;;;10.70;;
71937;SDS011;59810;48.800;9.086;2023-01-24T07:54:13;24.80;;;10.13;;
71937;SDS011;59810;48.800;9.086;2023-01-24T07:56:38;26.48;;;10.40;;
71937;SDS011;59810;48.800;9.086;2023-01-24T07:59:03;29.37;;;11.97;;
71937;SDS011;59810;48.800;9.086;2023-01-24T08:01:31;29.23;;;11.13;;
71937;SDS011;59810;48.800;9.086;2023-01-24T08:03:57;26.40;;;10.73;;
71937;SDS011;59810;48.800;9.086;2023-01-24T08:06:23;30.52;;;12.95;;
71937;SDS011;59810;48.800;9.086;2023-01-24T08:08:49;28.23;;;11.17;;
71937;SDS011;59810;48.800;9.086;2023-01-24T08:11:17;26.45;;;11.23;;
71937;SDS011;59810;48.800;9.086;2023-01-24T08:13:43;33.33;;;13.60;;
71937;SDS011;59810;48.800;9.086;2023-01-24T08:16:08;27.95;;;10.65;;
71937;SDS011;59810;48.800;9.086;2023-01-24T08:18:34;29.77;;;11.47;;
71937;SDS011;59810;48.800;9.086;2023-01-24T08:21:02;27.15;;;12.07;;
71937;SDS011;59810;48.800;9.086;2023-01-24T08:23:27;25.90;;;10.97;;
71937;SDS011;59810;48.800;9.086;2023-01-24T08:25:52;27.83;;;10.90;;
71937;SDS011;59810;48.800;9.086;2023-01-24T08:28:18;28.17;;;11.93;;
71937;SDS011;59810;48.800;9.086;2023-01-24T08:30:45;24.90;;;10.93;;
71937;SDS011;59810;48.800;9.086;2023-01-24T08:33:10;24.30;;;10.10;;
71937;SDS011;59810;48.800;9.086;2023-01-24T08:35:42;25.88;;;10.50;;
71937;SDS011;59810;48.800;9.086;2023-01-24T08:38:10;25.38;;;9.85;;
71937;SDS011;59810;48.800;9.086;2023-01-24T08:40:38;29.27;;;10.88;;
71937;SDS011;59810;48.800;9.086;2023-01-24T08:43:03;23.90;;;10.13;;
71937;SDS011;59810;48.800;9.086;2023-01-24T08:45:29;31.83;;;11.27;;
71937;SDS011;59810;48.800;9.086;2023-01-24T08:47:57;27.70;;;9.63;;
71937;SDS011;59810;48.800;9.086;2023-01-24T08:50:22;29.60;;;11.68;;
71937;SDS011;59810;48.800;9.086;2023-01-24T08:52:48;26.83;;;10.60;;
71937;SDS011;59810;48.800;9.086;2023-01-24T08:55:14;28.73;;;10.33;;
71937;SDS011;59810;48.800;9.086;2023-01-24T08:57:40;25.15;;;10.23;;
71937;SDS011;59810;48.800;9.086;2023-01-24T09:00:07;27.75;;;10.80;;
71937;SDS011;59810;48.800;9.086;2023-01-24T09:02:33;26.40;;;10.27;;
71937;SDS011;59810;48.800;9.086;2023-01-24T09:05:02;25.87;;;10.03;;
71937;SDS011;59810;48.800;9.086;2023-01-24T09:07:28;26.35;;;10.60;;
71937;SDS011;59810;48.800;9.086;2023-01-24T09:09:53;29.43;;;11.43;;
71937;SDS011;59810;48.800;9.086;2023-01-24T09:12:19;29.17;;;10.93;;
71937;SDS011;59810;48.800;9.086;2023-01-24T09:14:44;27.73;;;11.23;;
71937;SDS011;59810;48.800;9.086;2023-01-24T09:17:09;22.73;;;9.33;;
71937;SDS011;59810;48.800;9.086;2023-01-24T09:19:35;24.07;;;10.30;;
71937;SDS011;59810;48.800;9.086;2023-01-24T09:22:00;25.13;;;10.37;;
71937;SDS011;59810;48.800;9.086;2023-01-24T09:24:25;22.80;;;9.80;;
71937;SDS011;59810;48.800;9.086;2023-01-24T09:26:51;26.57;;;10.03;;
71937;SDS011;59810;48.800;9.086;2023-01-24T09:29:18;24.33;;;9.77;;
71937;SDS011;59810;48.800;9.086;2023-01-24T09:31:44;24.87;;;9.23;;
71937;SDS011;59810;48.800;9.086;2023-01-24T09:34:09;28.52;;;10.60;;
71937;SDS011;59810;48.800;9.086;2023-01-24T09:36:34;21.67;;;9.20;;
71937;SDS011;59810;48.800;9.086;2023-01-24T09:39:00;23.10;;;8.73;;
71937;SDS011;59810;48.800;9.086;2023-01-24T09:41:36;25.87;;;9.13;;
71937;SDS011;59810;48.800;9.086;2023-01-24T09:44:17;26.92;;;9.52;;
71937;SDS011;59810;48.800;9.086;2023-01-24T09:46:53;24.17;;;9.40;;
71937;SDS011;59810;48.800;9.086;2023-01-24T09:49:22;26.93;;;9.73;;
71937;SDS011;59810;48.800;9.086;2023-01-24T09:51:57;22.52;;;9.10;;
71937;SDS011;59810;48.800;9.086;2023-01-24T09:54:31;20.85;;;9.27;;
71937;SDS011;59810;48.800;9.086;2023-01-24T09:57:00;19.77;;;8.48;;
71937;SDS011;59810;48.800;9.086;2023-01-24T09:59:42;24.55;;;9.10;;
71937;SDS011;59810;48.800;9.086;2023-01-24T10:02:15;23.47;;;8.93;;
71937;SDS011;59810;48.800;9.086;2023-01-24T10:04:43;19.92;;;7.97;;
71937;SDS011;59810;48.800;9.086;2023-01-24T10:07:15;18.88;;;8.00;;
71937;SDS011;59810;48.800;9.086;2023-01-24T10:10:22;22.83;;;9.55;;
71937;SDS011;59810;48.800;9.086;2023-01-24T10:23:46;22.75;;;8.77;;
71937;SDS011;59810;48.800;9.086;2023-01-24T10:26:18;21.13;;;9.50;;
71937;SDS011;59810;48.800;9.086;2023-01-24T10:29:22;21.30;;;8.87;;
71937;SDS011;59810;48.800;9.086;2023-01-24T10:34:39;18.77;;;7.43;;
71937;SDS011;59810;48.800;9.086;2023-01-24T10:39:36;21.30;;;8.23;;
71937;SDS011;59810;48.800;9.086;2023-01-24T10:42:46;20.80;;;8.57;;
71937;SDS011;59810;48.800;9.086;2023-01-24T10:45:00;18.73;;;8.07;;
71937;SDS011;59810;48.800;9.086;2023-01-24T10:50:21;18.65;;;8.23;;
71937;SDS011;59810;48.800;9.086;2023-01-24T10:52:48;21.00;;;9.20;;
71937;SDS011;59810;48.800;9.086;2023-01-24T10:55:33;21.77;;;9.15;;
71937;SDS011;59810;48.800;9.086;2023-01-24T10:58:01;20.88;;;8.73;;
71937;SDS011;59810;48.800;9.086;2023-01-24T11:00:42;22.87;;;8.70;;
71937;SDS011;59810;48.800;9.086;2023-01-24T11:03:28;18.58;;;8.00;;
71937;SDS011;59810;48.800;9.086;2023-01-24T11:05:56;25.30;;;9.85;;
71937;SDS011;59810;48.800;9.086;2023-01-24T11:08:26;15.35;;;6.80;;
71937;SDS011;59810;48.800;9.086;2023-01-24T11:10:57;17.00;;;6.95;;
71937;SDS011;59810;48.800;9.086;2023-01-24T11:15:59;18.10;;;7.38;;
71937;SDS011;59810;48.800;9.086;2023-01-24T11:18:29;17.85;;;7.18;;
71937;SDS011;59810;48.800;9.086;2023-01-24T11:21:05;17.83;;;7.45;;
71937;SDS011;59810;48.800;9.086;2023-01-24T11:23:36;17.90;;;7.97;;
71937;SDS011;59810;48.800;9.086;2023-01-24T11:26:03;16.60;;;6.57;;
71937;SDS011;59810;48.800;9.086;2023-01-24T11:28:31;21.33;;;7.93;;
71937;SDS011;59810;48.800;9.086;2023-01-24T11:31:00;16.25;;;7.50;;
71937;SDS011;59810;48.800;9.086;2023-01-24T11:35:54;17.33;;;7.20;;
71937;SDS011;59810;48.800;9.086;2023-01-24T11:38:40;17.40;;;6.90;;
71937;SDS011;59810;48.800;9.086;2023-01-24T12:03:41;17.23;;;6.37;;
71937;SDS011;59810;48.800;9.086;2023-01-24T12:17:29;17.75;;;6.63;;
71937;SDS011;59810;48.800;9.086;2023-01-24T12:22:32;17.95;;;7.05;;
71937;SDS011;59810;48.800;9.086;2023-01-24T12:25:03;16.35;;;6.93;;
71937;SDS011;59810;48.800;9.086;2023-01-24T12:27:32;14.67;;;6.27;;
71937;SDS011;59810;48.800;9.086;2023-01-24T12:32:48;17.10;;;6.70;;
71937;SDS011;59810;48.800;9.086;2023-01-24T12:35:40;15.13;;;7.03;;
71937;SDS011;59810;48.800;9.086;2023-01-24T12:41:06;15.30;;;6.63;;
71937;SDS011;59810;48.800;9.086;2023-01-24T12:49:11;18.27;;;8.45;;
71937;SDS011;59810;48.800;9.086;2023-01-24T12:51:45;15.50;;;6.60;;
71937;SDS011;59810;48.800;9.086;2023-01-24T12:54:19;16.13;;;6.73;;
71937;SDS011;59810;48.800;9.086;2023-01-24T12:56:58;15.93;;;6.95;;
71937;SDS011;59810;48.800;9.086;2023-01-24T12:59:30;17.98;;;6.50;;
71937;SDS011;59810;48.800;9.086;2023-01-24T13:10:09;16.20;;;6.40;;
71937;SDS011;59810;48.800;9.086;2023-01-24T13:12:35;15.30;;;6.05;;
71937;SDS011;59810;48.800;9.086;2023-01-24T13:32:06;15.43;;;6.30;;
71937;SDS011;59810;48.800;9.086;2023-01-24T13:34:42;16.67;;;5.43;;
71937;SDS011;59810;48.800;9.086;2023-01-24T13:37:31;14.73;;;6.77;;
71937;SDS011;59810;48.800;9.086;2023-01-24T13:42:32;17.83;;;7.35;;
71937;SDS011;59810;48.800;9.086;2023-01-24T13:45:08;18.73;;;8.43;;
71937;SDS011;59810;48.800;9.086;2023-01-24T13:47:53;15.32;;;6.38;;
71937;SDS011;59810;48.800;9.086;2023-01-24T13:50:21;13.80;;;5.43;;
71937;SDS011;59810;48.800;9.086;2023-01-24T13:52:53;13.90;;;6.20;;
71937;SDS011;59810;48.800;9.086;2023-01-24T13:57:48;15.67;;;6.70;;
71937;SDS011;59810;48.800;9.086;2023-01-24T14:05:41;16.80;;;6.53;;
71937;SDS011;59810;48.800;9.086;2023-01-24T14:08:53;13.68;;;7.15;;
71937;SDS011;59810;48.800;9.086;2023-01-24T14:11:21;14.80;;;6.37;;
71937;SDS011;59810;48.800;9.086;2023-01-24T14:22:02;16.02;;;6.80;;
71937;SDS011;59810;48.800;9.086;2023-01-24T14:24:58;13.17;;;6.10;;
71937;SDS011;59810;48.800;9.086;2023-01-24T14:27:47;15.95;;;6.30;;
71937;SDS011;59810;48.800;9.086;2023-01-24T14:37:46;13.18;;;5.57;;
71937;SDS011;59810;48.800;9.086;2023-01-24T14:42:43;14.95;;;6.32;;
71937;SDS011;59810;48.800;9.086;2023-01-24T14:45:15;16.80;;;6.63;;
71937;SDS011;59810;48.800;9.086;2023-01-24T14:47:46;15.18;;;6.53;;
71937;SDS011;59810;48.800;9.086;2023-01-24T14:50:21;15.75;;;6.32;;
71937;SDS011;59810;48.800;9.086;2023-01-24T14:52:56;18.10;;;7.55;;
71937;SDS011;59810;48.800;9.086;2023-01-24T14:57:51;17.77;;;8.17;;
71937;SDS011;59810;48.800;9.086;2023-01-24T15:00:18;19.10;;;7.00;;
71937;SDS011;59810;48.800;9.086;2023-01-24T15:08:04;18.13;;;6.35;;
71937;SDS011;59810;48.800;9.086;2023-01-24T15:10:39;17.03;;;6.33;;
71937;SDS011;59810;48.800;9.086;2023-01-24T15:13:10;15.48;;;6.65;;
71937;SDS011;59810;48.800;9.086;2023-01-24T15:15:44;16.55;;;6.80;;
71937;SDS011;59810;48.800;9.086;2023-01-24T15:18:45;14.45;;;6.32;;
71937;SDS011;59810;48.800;9.086;2023-01-24T15:24:05;18.37;;;6.70;;
71937;SDS011;59810;48.800;9.086;2023-01-24T15:26:42;21.00;;;7.35;;
71937;SDS011;59810;48.800;9.086;2023-01-24T15:31:59;17.85;;;7.03;;
71937;SDS011;59810;48.800;9.086;2023-01-24T15:34:25;16.57;;;7.07;;
71937;SDS011;59810;48.800;9.086;2023-01-24T15:36:57;16.13;;;7.03;;
71937;SDS011;59810;48.800;9.086;2023-01-24T15:39:25;19.33;;;6.97;;
71937;SDS011;59810;48.800;9.086;2023-01-24T15:41:53;16.23;;;6.70;;
71937;SDS011;59810;48.800;9.086;2023-01-24T15:44:42;17.73;;;7.05;;
71937;SDS011;59810;48.800;9.086;2023-01-24T15:47:21;16.52;;;6.95;;
71937;SDS011;59810;48.800;9.086;2023-01-24T15:50:15;16.13;;;8.07;;
71937;SDS011;59810;48.800;9.086;2023-01-24T15:55:49;18.95;;;7.53;;
71937;SDS011;59810;48.800;9.086;2023-01-24T15:58:15;20.55;;;8.05;;
71937;SDS011;59810;48.800;9.086;2023-01-24T16:00:58;20.27;;;8.60;;
71937;SDS011;59810;48.800;9.086;2023-01-24T16:03:24;20.92;;;8.20;;
71937;SDS011;59810;48.800;9.086;2023-01-24T16:05:52;24.27;;;8.87;;
71937;SDS011;59810;48.800;9.086;2023-01-24T16:08:17;23.25;;;8.23;;
71937;SDS011;59810;48.800;9.086;2023-01-24T16:10:44;18.25;;;7.25;;
71937;SDS011;59810;48.800;9.086;2023-01-24T16:13:24;16.85;;;7.50;;
71937;SDS011;59810;48.800;9.086;2023-01-24T16:15:58;19.30;;;7.93;;
71937;SDS011;59810;48.800;9.086;2023-01-24T16:18:25;18.92;;;8.40;;
71937;SDS011;59810;48.800;9.086;2023-01-24T16:20:51;17.40;;;7.90;;
71937;SDS011;59810;48.800;9.086;2023-01-24T16:23:17;22.33;;;8.60;;
71937;SDS011;59810;48.800;9.086;2023-01-24T16:25:42;18.98;;;8.32;;
71937;SDS011;59810;48.800;9.086;2023-01-24T16:28:16;20.70;;;7.95;;
71937;SDS011;59810;48.800;9.086;2023-01-24T16:30:49;23.20;;;8.97;;
71937;SDS011;59810;48.800;9.086;2023-01-24T16:33:16;19.77;;;7.63;;
71937;SDS011;59810;48.800;9.086;2023-01-24T16:35:43;19.38;;;7.43;;
71937;SDS011;59810;48.800;9.086;2023-01-24T16:38:12;22.38;;;8.13;;
71937;SDS011;59810;48.800;9.086;2023-01-24T16:40:39;22.35;;;8.35;;
71937;SDS011;59810;48.800;9.086;2023-01-24T16:43:07;23.03;;;9.20;;
71937;SDS011;59810;48.800;9.086;2023-01-24T16:45:42;25.48;;;9.07;;
71937;SDS011;59810;48.800;9.086;2023-01-24T16:48:10;18.05;;;8.00;;
71937;SDS011;59810;48.800;9.086;2023-01-24T16:50:38;23.98;;;8.75;;
71937;SDS011;59810;48.800;9.086;2023-01-24T16:53:04;20.38;;;8.50;;
71937;SDS011;59810;48.800;9.086;2023-01-24T16:55:29;26.00;;;9.57;;
71937;SDS011;59810;48.800;9.086;2023-01-24T16:57:55;22.40;;;8.90;;
71937;SDS011;59810;48.800;9.086;2023-01-24T17:00:23;20.60;;;8.73;;
71937;SDS011;59810;48.800;9.086;2023-01-24T17:02:51;23.33;;;9.25;;
71937;SDS011;59810;48.800;9.086;2023-01-24T17:05:18;22.42;;;9.55;;
71937;SDS011;59810;48.800;9.086;2023-01-24T17:07:47;22.03;;;8.57;;
71937;SDS011;59810;48.800;9.086;2023-01-24T17:10:14;22.85;;;9.20;;
71937;SDS011;59810;48.800;9.086;2023-01-24T17:12:39;21.92;;;9.25;;
71937;SDS011;59810;48.800;9.086;2023-01-24T17:15:05;24.50;;;9.20;;
71937;SDS011;59810;48.800;9.086;2023-01-24T17:17:33;21.33;;;7.85;;
71937;SDS011;59810;48.800;9.086;2023-01-24T17:19:58;20.20;;;8.37;;